Time;durP1;ratioP1;P1;durP2;ratioP2;P2;SDS_P1;SDS_P2;PMS_P1;PMS_P2;Temp;Humidity;BMP_temperature;BMP_pressure;BME280_temperature;BME280_humidity;BME280_pressure;Samples;Min_cycle;Max_cycle;Signal;HPM_P1;HPM_P2
2023/05/08 00:02:24;;;;;;;4.00;3.20;;;;;;;21.30;41.77;102197.75;5004677;28;20037;-79
2023/05/08 00:04:50;;;;;;;4.07;3.60;;;;;;;21.21;41.56;102184.59;5009558;28;20173;-80
2023/05/08 00:07:15;;;;;;;3.72;2.92;;;;;;;21.39;41.86;102214.56;5020311;28;20379;-79
2023/05/08 00:09:41;;;;;;;3.30;3.00;;;;;;;21.40;41.86;102217.03;5020830;28;20029;-79
2023/05/08 00:12:07;;;;;;;4.07;3.08;;;;;;;21.42;41.69;102217.72;5014060;28;20033;-79
2023/05/08 00:14:32;;;;;;;3.45;3.15;;;;;;;21.25;41.86;102186.81;5019137;28;20034;-79
2023/05/08 00:16:58;;;;;;;3.38;2.90;;;;;;;21.35;41.88;102198.13;5008934;28;20046;-80
2023/05/08 00:19:23;;;;;;;3.78;3.20;;;;;;;21.35;41.63;102205.22;5008468;28;20042;-80
2023/05/08 00:21:49;;;;;;;3.85;3.42;;;;;;;21.36;41.64;102212.19;5011781;28;20034;-80
2023/05/08 00:24:14;;;;;;;4.60;3.50;;;;;;;21.32;41.79;102205.56;5011234;28;20061;-80
2023/05/08 00:26:40;;;;;;;4.53;3.50;;;;;;;21.36;41.69;102215.72;5006169;28;20483;-79
2023/05/08 00:29:06;;;;;;;4.35;3.30;;;;;;;21.31;41.76;102204.72;5005638;28;20052;-79
2023/05/08 00:31:32;;;;;;;3.85;3.42;;;;;;;21.35;41.89;102214.00;4987147;28;20030;-79
2023/05/08 00:33:57;;;;;;;3.72;3.25;;;;;;;21.27;41.70;102198.06;5017045;28;20030;-80
2023/05/08 00:36:23;;;;;;;3.72;3.20;;;;;;;21.35;41.78;102214.00;5003750;28;20041;-79
2023/05/08 00:38:48;;;;;;;3.70;3.30;;;;;;;21.31;41.81;102203.91;5002445;28;20079;-79
2023/05/08 00:41:14;;;;;;;4.95;3.30;;;;;;;21.35;41.85;102214.00;5000942;28;20057;-79
2023/05/08 00:43:40;;;;;;;3.88;3.47;;;;;;;21.33;41.71;102221.28;5034050;28;21097;-79
2023/05/08 00:46:08;;;;;;;3.92;3.38;;;;;;;21.32;41.79;102208.19;5033991;28;20033;-79
2023/05/08 00:48:35;;;;;;;3.90;3.40;;;;;;;21.27;41.79;102202.56;5003600;28;20587;-79
2023/05/08 00:51:03;;;;;;;3.80;3.38;;;;;;;21.28;41.66;102206.84;5017050;28;20458;-79
2023/05/08 00:53:31;;;;;;;4.43;3.58;;;;;;;21.39;41.63;102217.22;5017878;28;20096;-79
2023/05/08 00:55:58;;;;;;;4.10;3.38;;;;;;;21.26;41.79;102196.41;5001932;28;20049;-79
2023/05/08 00:58:26;;;;;;;4.93;3.35;;;;;;;21.31;41.44;102195.94;5015328;28;20065;-79
2023/05/08 01:00:54;;;;;;;4.00;3.42;;;;;;;21.39;41.61;102211.91;5019397;28;20041;-79
2023/05/08 01:03:21;;;;;;;3.65;3.25;;;;;;;21.37;41.85;102219.19;5002086;28;20026;-79
2023/05/08 01:05:47;;;;;;;3.53;3.22;;;;;;;21.21;41.66;102184.59;5018961;28;20113;-79
2023/05/08 01:08:12;;;;;;;3.75;3.33;;;;;;;21.36;41.61;102212.19;5032223;28;20151;-79
2023/05/08 01:11:02;;;;;;;4.18;3.60;;;;;;;21.36;41.58;102217.50;5018627;28;20480;-79
2023/05/08 01:13:47;;;;;;;;;;;;;;;21.34;41.75;102207.06;5017882;28;20041;-79
2023/05/08 01:16:31;;;;;;;4.35;3.67;;;;;;;21.27;41.66;102202.56;5033956;28;19917;-79
2023/05/08 01:19:04;;;;;;;4.22;3.50;;;;;;;21.35;41.79;102216.66;5017458;28;20045;-80
2023/05/08 01:21:40;;;;;;;4.38;3.67;;;;;;;21.21;41.66;102195.22;5002537;28;20034;-80
2023/05/08 01:24:24;;;;;;;3.50;3.13;;;;;;;21.36;41.72;102205.09;5015478;28;20041;-79
2023/05/08 01:27:21;;;;;;;3.78;3.22;;;;;;;21.31;41.86;102215.31;5004349;28;20072;-80
2023/05/08 01:29:52;;;;;;;4.18;3.50;;;;;;;21.31;41.89;102210.03;5031025;28;20448;-79
2023/05/08 01:32:26;;;;;;;4.32;3.83;;;;;;;21.30;41.61;102212.84;5032644;28;20037;-79
2023/05/08 01:35:02;;;;;;;3.97;3.30;;;;;;;21.32;41.56;102213.50;5012499;28;20077;-79
2023/05/08 01:38:02;;;;;;;3.50;3.20;;;;;;;21.27;41.84;102203.38;5014745;28;20085;-79
2023/05/08 01:40:39;;;;;;;4.10;3.40;;;;;;;21.32;41.78;102210.84;4995035;28;20081;-79
2023/05/08 01:43:15;;;;;;;3.90;3.47;;;;;;;21.27;41.78;102210.50;5016680;28;20418;-79
2023/05/08 01:45:48;;;;;;;3.67;3.20;;;;;;;21.21;41.74;102205.81;5011893;28;20508;-79
2023/05/08 01:48:30;;;;;;;4.20;3.58;;;;;;;21.16;41.59;102203.59;5018361;28;20037;-79
2023/05/08 01:51:01;;;;;;;4.53;3.85;;;;;;;21.30;41.51;102213.66;5018282;28;20034;-79
2023/05/08 01:53:29;;;;;;;3.88;3.47;;;;;;;21.30;41.62;102218.97;5021186;28;20093;-79
2023/05/08 01:55:58;;;;;;;4.05;3.53;;;;;;;21.22;41.47;102196.88;5018465;28;20056;-79
2023/05/08 01:58:26;;;;;;;4.18;3.60;;;;;;;21.27;41.63;102211.31;5009829;28;20369;-79
2023/05/08 02:00:53;;;;;;;3.70;3.05;;;;;;;21.24;41.84;102203.69;5034206;28;20025;-79
2023/05/08 02:03:22;;;;;;;4.00;3.47;;;;;;;21.23;41.59;102199.34;5002218;28;20042;-79
2023/05/08 02:05:50;;;;;;;4.50;3.40;;;;;;;21.17;41.67;102196.47;5005062;28;20038;-79
2023/05/08 02:08:18;;;;;;;4.57;3.60;;;;;;;21.16;41.78;102200.13;5032472;28;20697;-79
2023/05/08 02:10:46;;;;;;;4.78;4.00;;;;;;;21.21;41.72;102208.44;5012778;28;20101;-79
2023/05/08 02:13:17;;;;;;;4.50;3.53;;;;;;;21.22;41.48;102205.66;5002043;28;20048;-79
2023/05/08 02:15:46;;;;;;;4.38;3.53;;;;;;;21.24;41.61;102210.78;5013465;28;20065;-79
2023/05/08 02:18:14;;;;;;;4.27;3.87;;;;;;;21.23;41.73;102209.13;5030744;28;20049;-79
2023/05/08 02:20:41;;;;;;;4.40;3.70;;;;;;;21.24;41.62;102219.59;4999787;28;20026;-79
2023/05/08 02:23:07;;;;;;;4.95;3.78;;;;;;;21.21;41.70;102227.00;5029836;28;20637;-79
2023/05/08 02:25:35;;;;;;;4.25;3.85;;;;;;;21.17;41.76;102225.63;5018585;28;20064;-79
2023/05/08 02:28:02;;;;;;;4.43;4.03;;;;;;;21.24;41.64;102239.91;5019396;28;20042;-79
2023/05/08 02:30:28;;;;;;;3.95;3.33;;;;;;;21.25;41.47;102237.16;5005888;28;20057;-79
2023/05/08 02:32:55;;;;;;;3.97;3.58;;;;;;;21.21;41.36;102234.94;5020110;28;20034;-80
2023/05/08 02:35:22;;;;;;;4.40;3.63;;;;;;;21.20;41.62;102234.09;5020229;28;20042;-79
2023/05/08 02:37:52;;;;;;;4.85;4.03;;;;;;;21.11;41.59;102217.31;5021130;28;20095;-80
2023/05/08 02:40:21;;;;;;;3.72;3.38;;;;;;;21.18;41.65;102224.63;5003892;28;20102;-79
2023/05/08 02:42:47;;;;;;;4.07;3.50;;;;;;;21.20;41.82;102234.09;5017994;28;20109;-79
2023/05/08 02:45:13;;;;;;;4.85;4.03;;;;;;;21.20;41.66;102243.88;5018516;28;20029;-79
2023/05/08 02:48:21;;;;;;;4.05;3.53;;;;;;;21.21;41.67;102237.59;5005622;28;20057;-80
2023/05/08 02:50:56;;;;;;;4.63;3.83;;;;;;;21.15;41.62;102235.53;5009781;28;20102;-79
2023/05/08 02:53:31;;;;;;;4.63;3.90;;;;;;;21.08;41.82;102224.75;5016181;28;20042;-80
2023/05/08 02:56:08;;;;;;;4.45;3.90;;;;;;;21.12;41.93;102231.38;5005527;28;20030;-79
2023/05/08 02:58:57;;;;;;;4.30;3.40;;;;;;;21.04;41.53;102220.75;5003890;28;20640;-79
2023/05/08 03:01:34;;;;;;;4.18;3.78;;;;;;;21.13;41.42;102244.47;5022742;28;20064;-79
2023/05/08 03:04:06;;;;;;;4.03;3.50;;;;;;;21.00;41.40;102219.38;5023150;28;20048;-79
2023/05/08 03:06:45;;;;;;;4.80;4.00;;;;;;;21.03;41.70;102224.38;5002970;28;20140;-80
2023/05/08 03:09:25;;;;;;;4.13;3.47;;;;;;;21.07;41.58;102229.22;5035830;28;20038;-80
2023/05/08 03:12:02;;;;;;;4.13;3.72;;;;;;;21.10;41.52;102236.00;5021012;28;20068;-80
2023/05/08 03:14:31;;;;;;;4.03;3.42;;;;;;;21.04;41.59;102226.03;5016767;28;20488;-80
2023/05/08 03:16:59;;;;;;;4.28;3.80;;;;;;;21.03;41.55;102219.91;5021963;28;20456;-80
2023/05/08 03:19:28;;;;;;;4.13;3.60;;;;;;;21.09;41.56;102231.69;5005456;28;20038;-79
2023/05/08 03:21:56;;;;;;;4.35;3.60;;;;;;;21.15;41.70;102230.25;5041786;28;20080;-80
2023/05/08 03:24:24;;;;;;;5.07;3.75;;;;;;;21.05;41.45;102228.53;5019435;28;20053;-80
2023/05/08 03:26:50;;;;;;;4.05;3.65;;;;;;;21.16;41.59;102231.91;5006774;28;20064;-80
2023/05/08 03:29:17;;;;;;;5.45;3.60;;;;;;;21.12;41.56;102229.56;5020159;28;20033;-80
2023/05/08 03:31:43;;;;;;;3.88;3.47;;;;;;;21.06;41.54;102224.06;5022001;28;20048;-79
2023/05/08 03:34:11;;;;;;;4.75;3.70;;;;;;;21.11;41.63;102229.72;5022450;28;20045;-80
2023/05/08 03:36:37;;;;;;;4.25;3.85;;;;;;;21.03;41.54;102229.69;5005132;28;20034;-80
2023/05/08 03:39:03;;;;;;;4.47;3.83;;;;;;;20.98;41.49;102224.81;5034259;28;20041;-79
2023/05/08 03:41:30;;;;;;;4.28;3.78;;;;;;;21.03;41.73;102227.03;5001560;28;20048;-80
2023/05/08 03:43:57;;;;;;;3.88;3.47;;;;;;;21.05;41.75;102225.06;5006996;28;20223;-80
2023/05/08 03:46:23;;;;;;;3.97;3.58;;;;;;;20.94;41.73;102218.16;5032060;28;20453;-79
2023/05/08 03:48:50;;;;;;;3.60;3.30;;;;;;;21.05;41.76;102225.88;5000782;28;20043;-79
2023/05/08 03:51:17;;;;;;;4.18;3.78;;;;;;;21.03;41.61;102224.38;5016656;28;20499;-79
2023/05/08 03:53:43;;;;;;;4.22;3.50;;;;;;;21.05;41.79;102228.53;5001935;28;20053;-79
2023/05/08 03:56:09;;;;;;;5.47;3.75;;;;;;;21.01;41.56;102211.28;5032300;28;20046;-79
2023/05/08 03:58:47;;;;;;;4.45;3.53;;;;;;;21.06;41.52;102224.06;5001703;28;20022;-79
2023/05/08 04:01:19;;;;;;;4.10;3.70;;;;;;;21.00;41.72;102214.91;5019113;28;20034;-79
2023/05/08 04:03:53;;;;;;;4.60;4.00;;;;;;;20.89;41.52;102204.56;5004168;28;20034;-79
2023/05/08 04:06:36;;;;;;;4.28;3.47;;;;;;;20.95;41.76;102219.00;5020016;28;20705;-79
2023/05/08 04:09:12;;;;;;;4.43;3.72;;;;;;;20.99;41.68;102226.47;5008587;28;20037;-79
2023/05/08 04:11:46;;;;;;;4.80;4.00;;;;;;;20.98;41.64;102216.03;5032538;28;20124;-79
2023/05/08 04:14:18;;;;;;;4.32;3.50;;;;;;;21.03;41.70;102229.69;5018083;28;20138;-79
2023/05/08 04:16:49;;;;;;;5.25;4.13;;;;;;;20.99;41.54;102229.13;5005745;28;20103;-79
2023/05/08 04:19:24;;;;;;;4.85;4.05;;;;;;;21.00;41.60;102216.72;5015050;28;20039;-79
2023/05/08 04:21:54;;;;;;;4.47;3.70;;;;;;;20.79;41.65;102188.75;5017920;28;20026;-79
2023/05/08 04:24:22;;;;;;;4.40;4.00;;;;;;;20.96;41.55;102210.06;5006563;28;20038;-79
2023/05/08 04:26:48;;;;;;;4.05;3.65;;;;;;;20.98;41.67;102216.88;5025242;28;20033;-79
2023/05/08 04:29:16;;;;;;;5.07;3.70;;;;;;;20.73;41.41;102185.91;5015044;28;20037;-80
2023/05/08 04:31:42;;;;;;;4.05;3.67;;;;;;;20.86;41.48;102206.69;5017286;28;20185;-80
2023/05/08 04:34:08;;;;;;;4.75;4.03;;;;;;;21.02;41.52;102225.38;5004373;28;20068;-79
2023/05/08 04:36:34;;;;;;;4.30;3.90;;;;;;;20.85;41.59;102197.91;5021017;28;20053;-80
2023/05/08 04:39:02;;;;;;;4.22;3.58;;;;;;;21.01;41.67;102221.88;5000991;28;20213;-80
2023/05/08 04:41:28;;;;;;;4.80;4.20;;;;;;;21.00;41.50;102216.72;4995897;28;20413;-79
2023/05/08 04:43:54;;;;;;;4.43;3.78;;;;;;;20.97;41.65;102222.31;4980766;28;20034;-80
2023/05/08 04:46:20;;;;;;;4.85;3.67;;;;;;;20.83;41.49;102185.81;4982121;28;20480;-80
2023/05/08 04:48:45;;;;;;;3.88;3.28;;;;;;;21.01;41.53;102223.69;5001191;28;20064;-80
2023/05/08 04:51:11;;;;;;;4.95;4.07;;;;;;;21.00;41.55;102225.50;4996223;28;20053;-79
2023/05/08 04:53:36;;;;;;;4.57;3.70;;;;;;;20.95;41.58;102213.72;4980354;28;20072;-80
2023/05/08 04:56:02;;;;;;;4.13;3.72;;;;;;;21.02;41.39;102226.19;4985030;28;20072;-79
2023/05/08 04:58:28;;;;;;;4.45;3.88;;;;;;;20.98;41.42;102232.75;5000794;28;20077;-79
2023/05/08 05:00:54;;;;;;;5.32;3.95;;;;;;;21.00;41.20;102227.31;4982860;28;20109;-79
2023/05/08 05:03:20;;;;;;;4.63;3.83;;;;;;;20.90;41.14;102202.75;4996217;28;20046;-80
2023/05/08 05:05:46;;;;;;;4.95;3.78;;;;;;;20.98;41.44;102216.88;4994007;28;20034;-80
2023/05/08 05:08:12;;;;;;;4.63;4.13;;;;;;;20.79;41.55;102195.88;4996477;28;20147;-79
2023/05/08 05:10:38;;;;;;;5.57;4.28;;;;;;;20.99;41.55;102228.28;4982076;28;20050;-80
2023/05/08 05:13:04;;;;;;;4.25;3.85;;;;;;;21.01;41.47;102223.69;4983284;28;20045;-80
2023/05/08 05:15:31;;;;;;;3.85;3.45;;;;;;;20.93;41.44;102215.69;5007634;28;20026;-80
2023/05/08 05:17:56;;;;;;;4.22;3.72;;;;;;;20.86;41.34;102217.28;4984561;28;20049;-79
2023/05/08 05:20:22;;;;;;;4.90;4.10;;;;;;;20.89;41.64;102236.34;4982209;28;20044;-79
2023/05/08 05:22:48;;;;;;;4.88;4.00;;;;;;;20.94;41.38;102243.81;4981481;28;20042;-80
2023/05/08 05:25:14;;;;;;;5.13;4.22;;;;;;;20.96;41.50;102242.69;4978316;28;20034;-80
2023/05/08 05:27:39;;;;;;;4.30;3.55;;;;;;;20.91;41.41;102236.19;4992969;28;20042;-80
2023/05/08 05:30:07;;;;;;;4.68;3.78;;;;;;;20.88;41.46;102234.69;4981687;28;20031;-80
2023/05/08 05:32:32;;;;;;;4.25;3.45;;;;;;;20.98;41.52;102256.59;4994712;28;20054;-80
2023/05/08 05:34:58;;;;;;;3.95;3.55;;;;;;;20.96;41.54;102247.16;5005289;28;20042;-80
2023/05/08 05:37:24;;;;;;;4.95;4.28;;;;;;;20.86;41.48;102236.66;4978160;28;20038;-80
2023/05/08 05:39:51;;;;;;;3.80;3.20;;;;;;;20.87;41.48;102246.25;4998822;28;20034;-79
2023/05/08 05:42:16;;;;;;;4.28;3.67;;;;;;;20.79;41.32;102228.47;4969798;28;20078;-79
2023/05/08 05:44:42;;;;;;;4.05;3.65;;;;;;;20.97;41.44;102257.59;4965659;28;20042;-79
2023/05/08 05:47:11;;;;;;;4.25;3.78;;;;;;;20.90;41.44;102242.47;4973138;28;20041;-79
2023/05/08 05:49:41;;;;;;;3.55;3.25;;;;;;;20.94;41.33;102246.47;4976418;28;20489;-80
2023/05/08 05:52:08;;;;;;;4.03;3.50;;;;;;;20.93;41.43;102248.28;4983714;28;20105;-80
2023/05/08 05:54:34;;;;;;;4.60;3.75;;;;;;;20.84;41.50;102238.63;4986868;28;20049;-79
2023/05/08 05:56:59;;;;;;;3.83;3.33;;;;;;;20.90;41.44;102248.59;5000229;28;20089;-80
2023/05/08 05:59:25;;;;;;;4.40;3.50;;;;;;;20.90;41.48;102251.25;4975330;28;20404;-80
2023/05/08 06:01:51;;;;;;;4.05;3.25;;;;;;;20.97;41.39;102260.22;4970895;28;20038;-81
2023/05/08 06:04:17;;;;;;;3.67;3.33;;;;;;;20.89;41.26;102246.09;4988102;28;20050;-79
2023/05/08 06:06:42;;;;;;;4.00;3.60;;;;;;;20.96;41.63;102263.03;5007486;28;20046;-79
2023/05/08 06:09:08;;;;;;;4.10;3.50;;;;;;;20.92;41.74;102265.16;4988346;28;20045;-80
2023/05/08 06:11:33;;;;;;;4.88;3.70;;;;;;;20.91;41.24;102255.56;4982706;28;20042;-79
2023/05/08 06:13:59;;;;;;;4.22;3.78;;;;;;;20.97;41.21;102270.81;4986825;28;20038;-80
2023/05/08 06:16:25;;;;;;;3.90;3.50;;;;;;;20.96;41.37;102265.69;4985429;28;20058;-80
2023/05/08 06:18:51;;;;;;;4.53;3.60;;;;;;;20.98;41.41;102267.19;4972384;28;20038;-80
2023/05/08 06:21:17;;;;;;;4.55;3.70;;;;;;;20.90;41.28;102263.66;4997531;28;20038;-82
2023/05/08 06:23:42;;;;;;;3.97;3.45;;;;;;;20.91;41.25;102258.19;4988623;28;20038;-80
2023/05/08 06:26:08;;;;;;;4.30;3.85;;;;;;;20.98;41.25;102269.84;4991574;28;20042;-80
2023/05/08 06:28:34;;;;;;;4.10;3.42;;;;;;;20.97;41.10;102259.41;4984193;28;20107;-80
2023/05/08 06:30:59;;;;;;;3.58;3.20;;;;;;;21.01;41.02;102244.88;4983901;28;20101;-80
2023/05/08 06:33:25;;;;;;;4.03;3.30;;;;;;;21.24;40.91;102250.53;4971163;28;20323;-80
2023/05/08 06:35:50;;;;;;;4.45;3.70;;;;;;;21.40;40.60;102256.78;4984719;28;20034;-80
2023/05/08 06:38:16;;;;;;;4.15;3.75;;;;;;;21.43;40.22;102234.44;4972731;28;20049;-79
2023/05/08 06:40:43;;;;;;;5.00;3.50;;;;;;;21.57;40.46;102248.94;4984654;28;20054;-79
2023/05/08 06:43:09;;;;;;;4.28;3.53;;;;;;;21.52;40.35;102235.31;5000068;28;20436;-78
2023/05/08 06:45:34;;;;;;;4.43;3.40;;;;;;;21.58;40.30;102238.19;4986793;28;20322;-79
2023/05/08 06:48:00;;;;;;;3.25;2.92;;;;;;;21.61;40.28;102240.53;5005547;28;20050;-79
2023/05/08 06:50:25;;;;;;;3.80;3.40;;;;;;;21.63;40.47;102256.25;4983657;28;20039;-80
2023/05/08 06:52:51;;;;;;;4.10;3.40;;;;;;;21.57;40.59;102247.13;5002963;28;20347;-79
2023/05/08 06:55:16;;;;;;;4.43;3.30;;;;;;;21.49;40.44;102236.47;4988468;28;20034;-79
2023/05/08 06:57:42;;;;;;;3.67;3.22;;;;;;;21.57;40.59;102243.66;4970108;28;20070;-80
2023/05/08 07:00:08;;;;;;;3.83;3.42;;;;;;;21.47;40.44;102238.44;4970498;28;20044;-79
2023/05/08 07:02:34;;;;;;;4.13;3.63;;;;;;;21.56;40.73;102250.78;4981015;28;20042;-80
2023/05/08 07:04:59;;;;;;;3.75;3.33;;;;;;;21.56;40.81;102244.63;4998018;28;20046;-80
2023/05/08 07:07:25;;;;;;;4.60;3.20;;;;;;;21.57;40.96;102263.03;4986674;28;20543;-80
2023/05/08 07:09:50;;;;;;;3.78;3.38;;;;;;;21.58;40.76;102256.75;4985080;28;20030;-79
2023/05/08 07:12:16;;;;;;;3.42;3.13;;;;;;;21.47;40.92;102248.22;4978380;28;20055;-80
2023/05/08 07:14:42;;;;;;;5.35;3.38;;;;;;;21.54;40.61;102257.19;4999168;28;20038;-80
2023/05/08 07:17:08;;;;;;;3.60;3.30;;;;;;;21.56;40.85;102260.53;5017682;28;20062;-80
2023/05/08 07:19:37;;;;;;;4.00;3.15;;;;;;;21.46;40.51;102244.72;5000178;28;20049;-80
2023/05/08 07:22:04;;;;;;;3.90;3.23;;;;;;;21.33;40.91;102226.59;5001785;28;20034;-79
2023/05/08 07:24:30;;;;;;;3.97;3.35;;;;;;;21.55;40.79;102253.59;4985733;28;20038;-79
2023/05/08 07:26:56;;;;;;;3.90;3.10;;;;;;;21.46;40.89;102243.91;5001904;28;20034;-79
2023/05/08 07:29:21;;;;;;;4.30;3.20;;;;;;;21.39;40.77;102231.28;4967649;28;20041;-79
2023/05/08 07:31:47;;;;;;;3.38;3.08;;;;;;;21.42;40.99;102233.63;5014237;28;20489;-79
2023/05/08 07:34:13;;;;;;;4.40;3.50;;;;;;;21.47;40.90;102241.09;4999425;28;20072;-80
2023/05/08 07:36:39;;;;;;;3.58;2.97;;;;;;;21.47;40.65;102235.78;4980831;28;20034;-79
2023/05/08 07:39:04;;;;;;;3.72;3.33;;;;;;;21.45;40.58;102232.47;4969899;28;20108;-80
2023/05/08 07:41:30;;;;;;;3.75;3.17;;;;;;;21.58;40.54;102251.44;5001678;28;20038;-80
2023/05/08 07:43:55;;;;;;;3.80;3.22;;;;;;;21.60;40.61;102244.16;4983526;28;20070;-80
2023/05/08 07:46:21;;;;;;;4.65;3.75;;;;;;;21.57;40.52;102241.00;4997366;28;20035;-79
2023/05/08 07:48:47;;;;;;;4.68;3.20;;;;;;;21.13;40.84;102169.47;5004942;28;20034;-80
2023/05/08 07:51:14;;;;;;;3.85;3.33;;;;;;;21.57;40.82;102244.47;4987594;28;20046;-80
2023/05/08 07:53:39;;;;;;;4.15;3.10;;;;;;;21.30;40.69;102196.94;4983373;28;20050;-80
2023/05/08 07:56:05;;;;;;;4.40;3.45;;;;;;;21.53;40.67;102221.91;5002194;28;20038;-80
2023/05/08 07:58:30;;;;;;;5.47;3.60;;;;;;;21.47;40.79;102225.19;4984137;28;20525;-80
2023/05/08 08:00:56;;;;;;;5.75;3.63;;;;;;;21.45;41.45;102236.94;4965896;28;20034;-80
2023/05/08 08:03:21;;;;;;;5.55;3.40;;;;;;;21.37;41.14;102220.03;4998572;28;20045;-79
2023/05/08 08:05:47;;;;;;;5.18;3.78;;;;;;;21.53;41.04;102234.31;4967151;28;20042;-79
2023/05/08 08:08:12;;;;;;;3.75;3.35;;;;;;;21.47;41.16;102221.72;4993808;28;20034;-79
2023/05/08 08:10:38;;;;;;;4.95;4.00;;;;;;;21.44;41.23;102222.88;4999882;28;20046;-79
2023/05/08 08:13:04;;;;;;;5.57;3.63;;;;;;;21.40;41.01;102214.41;5000548;28;20046;-80
2023/05/08 08:15:30;;;;;;;4.57;3.20;;;;;;;21.48;40.81;102234.81;4993217;28;20041;-80
2023/05/08 08:17:56;;;;;;;4.60;3.53;;;;;;;21.48;40.73;102223.38;5000870;28;20034;-79
2023/05/08 08:20:21;;;;;;;5.50;4.15;;;;;;;21.56;41.04;102220.78;4970015;28;20061;-78
2023/05/08 08:22:47;;;;;;;6.63;4.72;;;;;;;21.63;40.92;102233.25;4980566;28;20014;-78
2023/05/08 08:25:13;;;;;;;5.22;4.32;;;;;;;21.69;41.19;102234.41;4941270;28;20042;-79
2023/05/08 08:27:38;;;;;;;5.50;4.13;;;;;;;21.72;41.17;102236.75;4985900;28;20042;-77
2023/05/08 08:30:05;;;;;;;5.65;4.70;;;;;;;21.75;41.45;102231.16;4958667;28;21088;-78
2023/05/08 08:32:30;;;;;;;4.18;3.50;;;;;;;21.71;41.12;102212.06;4995865;28;20026;-78
2023/05/08 08:34:56;;;;;;;5.50;4.00;;;;;;;21.90;41.23;102232.22;4960071;28;20694;-80
2023/05/08 08:37:23;;;;;;;3.97;3.25;;;;;;;21.83;41.20;102215.25;4984103;28;20038;-83
2023/05/08 08:39:48;;;;;;;4.93;3.65;;;;;;;21.83;41.17;102214.44;4974657;28;20047;-80
2023/05/08 08:42:14;;;;;;;4.40;3.42;;;;;;;21.76;41.14;102206.31;5000093;28;20057;-81
2023/05/08 08:44:40;;;;;;;4.75;3.85;;;;;;;22.03;41.21;102245.00;4994962;28;20038;-78
2023/05/08 08:47:09;;;;;;;5.15;3.60;;;;;;;22.08;41.30;102237.44;4986366;28;20052;-78
2023/05/08 08:49:40;;;;;;;4.93;3.58;;;;;;;21.99;41.47;102241.84;4983456;28;20054;-85
2023/05/08 08:52:30;;;;;;;4.93;3.83;;;;;;;21.72;41.54;102204.94;5003060;28;20496;-83
2023/05/08 08:54:59;;;;;;;5.60;3.83;;;;;;;21.80;41.64;102217.41;4982316;28;20733;-84
2023/05/08 08:57:27;;;;;;;4.80;3.80;;;;;;;21.82;41.83;102220.72;4980625;28;20094;-83
2023/05/08 08:59:54;;;;;;;5.43;3.50;;;;;;;21.78;41.45;102214.09;4966829;28;20138;-83
2023/05/08 09:02:22;;;;;;;5.60;4.05;;;;;;;21.76;41.45;102205.47;4992845;28;20057;-82
2023/05/08 09:04:51;;;;;;;4.90;4.40;;;;;;;21.76;41.46;102197.50;5000677;28;20041;-83
2023/05/08 09:07:17;;;;;;;4.00;3.60;;;;;;;21.79;41.52;102202.50;4955087;28;20333;-84
2023/05/08 09:09:44;;;;;;;4.75;3.70;;;;;;;21.76;41.75;102213.41;4986330;28;20034;-84
2023/05/08 09:12:14;;;;;;;4.88;3.60;;;;;;;21.81;41.89;102216.41;4978726;28;20045;-83
2023/05/08 09:14:40;;;;;;;4.70;3.72;;;;;;;21.84;41.65;102205.50;4992250;28;20963;-81
2023/05/08 09:17:06;;;;;;;5.72;4.93;;;;;;;21.80;41.45;102204.16;4974059;28;20037;-83
2023/05/08 09:19:32;;;;;;;4.22;3.78;;;;;;;21.87;41.99;102218.41;4981442;28;20026;-83
2023/05/08 09:22:03;;;;;;;7.78;4.60;;;;;;;21.87;41.56;102215.78;4980651;28;20556;-83
2023/05/08 09:24:57;;;;;;;5.45;4.03;;;;;;;21.87;41.77;102207.81;4990933;28;20058;-82
2023/05/08 09:27:25;;;;;;;4.40;4.00;;;;;;;21.73;41.73;102179.28;4992357;28;20034;-83
2023/05/08 09:30:09;;;;;;;6.47;3.88;;;;;;;21.89;41.59;102200.53;4996355;28;20035;-82
2023/05/08 09:32:37;;;;;;;5.35;4.10;;;;;;;21.87;41.79;102203.34;4980166;28;20049;-83
2023/05/08 09:35:04;;;;;;;5.05;4.30;;;;;;;21.81;41.93;102198.69;4994404;28;20568;-82
2023/05/08 09:37:30;;;;;;;4.85;4.35;;;;;;;21.74;41.78;102184.41;4979177;28;20046;-85
2023/05/08 09:40:13;;;;;;;4.30;3.90;;;;;;;21.88;41.86;102193.56;4971050;28;20045;-85
2023/05/08 09:42:39;;;;;;;6.45;4.40;;;;;;;21.84;42.03;102190.41;5011152;28;20639;-83
2023/05/08 09:45:05;;;;;;;6.22;4.10;;;;;;;21.84;41.89;102189.56;5019191;28;20040;-83
2023/05/08 09:47:31;;;;;;;5.63;4.82;;;;;;;21.70;42.16;102169.81;5008977;28;20041;-83
2023/05/08 09:49:56;;;;;;;5.38;4.25;;;;;;;21.83;41.99;102191.41;5034176;28;20041;-83
2023/05/08 09:52:22;;;;;;;5.38;4.07;;;;;;;21.83;42.00;102186.09;5021502;28;20163;-84
2023/05/08 09:54:59;;;;;;;5.57;4.40;;;;;;;21.73;42.01;102172.16;5007152;28;20091;-82
2023/05/08 09:57:26;;;;;;;5.47;3.92;;;;;;;21.76;41.82;102179.78;5007598;28;20034;-83
2023/05/08 10:00:00;;;;;;;5.05;4.10;;;;;;;21.81;42.05;102190.72;5022301;28;20096;-83
2023/05/08 10:02:26;;;;;;;5.90;4.18;;;;;;;21.81;41.94;102188.09;5007043;28;20069;-84
2023/05/08 10:04:51;;;;;;;4.78;4.18;;;;;;;21.78;42.30;102199.00;4994489;28;20068;-83
2023/05/08 10:07:27;;;;;;;4.85;4.10;;;;;;;21.69;42.01;102176.91;5004870;28;20040;-82
2023/05/08 10:09:59;;;;;;;5.32;4.15;;;;;;;21.80;42.05;102196.19;5015229;28;20033;-83
2023/05/08 10:12:27;;;;;;;5.00;4.38;;;;;;;21.71;42.15;102177.59;5025478;28;20488;-83
2023/05/08 10:14:52;;;;;;;6.25;4.13;;;;;;;21.76;42.37;102185.09;5002954;28;20086;-85
2023/05/08 10:17:26;;;;;;;4.40;4.00;;;;;;;21.77;42.09;102186.75;5004522;28;20761;-86
2023/05/08 10:19:59;;;;;;;5.10;4.30;;;;;;;21.68;42.12;102164.66;5018267;28;20077;-84
2023/05/08 10:22:27;;;;;;;5.00;4.00;;;;;;;21.69;42.23;102171.63;5003039;28;20540;-84
2023/05/08 10:24:57;;;;;;;5.18;4.22;;;;;;;21.79;42.37;102192.72;4999191;28;20050;-85
2023/05/08 10:27:33;;;;;;;5.72;4.28;;;;;;;21.64;42.42;102165.97;5018970;28;20041;-84
2023/05/08 10:30:03;;;;;;;4.55;3.88;;;;;;;21.61;42.37;102157.50;4986664;28;20056;-84
2023/05/08 10:32:37;;;;;;;6.00;4.25;;;;;;;21.82;42.12;102184.44;5001957;28;20034;-84
2023/05/08 10:35:04;;;;;;;4.82;4.25;;;;;;;21.65;42.29;102151.72;5014067;28;20133;-84
2023/05/08 10:37:34;;;;;;;5.22;4.45;;;;;;;21.69;42.30;102154.88;5006551;28;20053;-85
2023/05/08 10:40:02;;;;;;;5.43;4.22;;;;;;;21.86;42.30;102184.94;4987112;28;20068;-84
2023/05/08 10:42:28;;;;;;;5.60;4.15;;;;;;;21.58;42.53;102136.63;5006755;28;20058;-83
2023/05/08 10:44:54;;;;;;;5.13;4.35;;;;;;;21.70;42.39;102145.94;4981095;28;20042;-85
2023/05/08 10:47:43;;;;;;;5.97;4.60;;;;;;;21.87;42.24;102179.47;5001505;28;20038;-85
2023/05/08 10:50:37;;;;;;;6.30;4.70;;;;;;;21.53;42.27;102129.13;4981125;28;20546;-86
2023/05/08 10:53:10;;;;;;;5.88;4.63;;;;;;;21.77;42.37;102148.81;4998638;28;20611;-86
2023/05/08 10:55:38;;;;;;;4.72;4.25;;;;;;;21.73;42.19;102147.47;4965593;28;20043;-85
2023/05/08 10:58:05;;;;;;;5.18;4.25;;;;;;;21.81;42.50;102164.22;4998397;28;20109;-86
2023/05/08 11:00:55;;;;;;;4.85;4.35;;;;;;;21.87;42.31;102165.38;4995293;28;20038;-88
2023/05/08 11:03:28;;;;;;;6.65;4.35;;;;;;;21.76;42.38;102144.50;5004523;28;20041;-89
2023/05/08 11:05:56;;;;;;;5.50;3.97;;;;;;;21.92;42.39;102155.16;4954265;28;20038;-87
2023/05/08 11:08:26;;;;;;;6.28;4.47;;;;;;;21.89;42.21;102158.09;4972653;28;20049;-82
2023/05/08 11:10:58;;;;;;;4.90;3.92;;;;;;;21.92;42.19;102157.81;4985342;28;20044;-81
2023/05/08 11:13:31;;;;;;;5.35;4.80;;;;;;;21.88;42.22;102156.44;5005870;28;20046;-81
2023/05/08 11:15:56;;;;;;;5.68;4.70;;;;;;;21.85;42.33;102144.34;4972478;28;20062;-81
2023/05/08 11:18:23;;;;;;;4.80;4.13;;;;;;;21.80;42.76;102133.38;5006987;28;20273;-81
2023/05/08 11:21:02;;;;;;;4.93;4.40;;;;;;;21.70;42.56;102133.50;4985601;28;20066;-81
2023/05/08 11:23:32;;;;;;;5.65;5.00;;;;;;;21.84;42.33;102147.16;4984906;28;20034;-81
2023/05/08 11:26:06;;;;;;;6.10;4.70;;;;;;;21.79;42.57;102138.84;4971335;28;20050;-81
2023/05/08 11:28:35;;;;;;;5.53;4.82;;;;;;;21.90;42.40;102154.44;4978438;28;20441;-81
2023/05/08 11:31:03;;;;;;;5.40;4.85;;;;;;;21.89;42.65;102150.97;4982440;28;20049;-81
2023/05/08 11:33:36;;;;;;;5.72;4.63;;;;;;;21.84;42.58;102140.03;4962707;28;22144;-81